createdAt,value
2023-09-22T00:02:32.053Z,99027.69
2023-09-22T00:05:03.038Z,99028.36
2023-09-22T00:07:35.497Z,99024.40
2023-09-22T00:10:09.234Z,99022.46
2023-09-22T00:12:41.323Z,99023.13
2023-09-22T00:15:15.002Z,99024.08
2023-09-22T00:17:46.885Z,99020.56
2023-09-22T00:20:19.454Z,99023.67
2023-09-22T00:22:49.935Z,99025.63
2023-09-22T00:25:23.162Z,99023.67
2023-09-22T00:27:55.125Z,99017.16
2023-09-22T00:30:29.328Z,99021.02
2023-09-22T00:33:01.603Z,99018.30
2023-09-22T00:35:33.684Z,99022.52
2023-09-22T00:38:08.045Z,99022.28
2023-09-22T00:40:40.120Z,99021.23
2023-09-22T00:43:13.545Z,99027.19
2023-09-22T00:45:48.469Z,99026.33
2023-09-22T00:48:25.187Z,99028.12
2023-09-22T00:50:58.165Z,99028.91
2023-09-22T00:53:33.269Z,99029.09
2023-09-22T00:56:06.063Z,99026.21
2023-09-22T00:58:38.454Z,99023.60
2023-09-22T01:01:10.783Z,99023.77
2023-09-22T01:03:42.869Z,99018.85
2023-09-22T01:06:15.028Z,99017.36
2023-09-22T01:08:46.933Z,99013.45
2023-09-22T01:11:18.880Z,99008.80
2023-09-22T01:13:50.884Z,99004.45
2023-09-22T01:16:23.001Z,99003.50
2023-09-22T01:18:54.903Z,99005.19
2023-09-22T01:21:30.309Z,99004.23
2023-09-22T01:24:02.288Z,99002.05
2023-09-22T01:26:34.161Z,99007.48
2023-09-22T01:29:06.473Z,99008.23
2023-09-22T01:31:39.285Z,99003.55
2023-09-22T01:34:12.086Z,99005.98
2023-09-22T01:36:44.875Z,99002.11
2023-09-22T01:39:17.498Z,99001.61
2023-09-22T01:41:49.500Z,99003.67
2023-09-22T01:44:21.516Z,99007.42
2023-09-22T01:46:53.564Z,99010.59
2023-09-22T01:49:25.829Z,99009.54
2023-09-22T01:51:57.716Z,99012.59
2023-09-22T01:54:29.717Z,99005.98
2023-09-22T01:57:01.729Z,98995.77
2023-09-22T01:59:33.955Z,98993.16
2023-09-22T02:02:05.897Z,98992.52
2023-09-22T02:04:37.860Z,98993.87
2023-09-22T02:07:11.599Z,98992.36
2023-09-22T02:09:45.634Z,98991.33
2023-09-22T02:12:18.424Z,98992.47
2023-09-22T02:14:50.346Z,98992.67
2023-09-22T02:17:22.456Z,98992.80
2023-09-22T02:19:54.380Z,98989.27
2023-09-22T02:22:26.373Z,98989.66
2023-09-22T02:24:58.483Z,98988.13
2023-09-22T02:27:30.525Z,98991.68
2023-09-22T02:30:03.307Z,98988.23
2023-09-22T02:32:35.600Z,98989.98
2023-09-22T02:35:09.651Z,98989.52
2023-09-22T02:37:41.881Z,98987.91
2023-09-22T02:40:15.974Z,98988.80
2023-09-22T02:42:48.130Z,98980.71
2023-09-22T02:45:20.466Z,98978.04
2023-09-22T02:47:54.669Z,98976.98
2023-09-22T02:50:26.705Z,98976.38
2023-09-22T02:52:58.676Z,98980.34
2023-09-22T02:55:30.789Z,98980.34
2023-09-22T02:58:02.720Z,98987.36
2023-09-22T03:00:35.332Z,98986.39
2023-09-22T03:03:08.133Z,98991.93
2023-09-22T03:05:40.531Z,98998.05
2023-09-22T03:08:12.485Z,98999.89
2023-09-22T03:10:44.753Z,99002.83
2023-09-22T03:13:16.914Z,99002.05
2023-09-22T03:15:49.267Z,99002.70
2023-09-22T03:18:20.674Z,98997.70
2023-09-22T03:20:52.551Z,98998.03
2023-09-22T03:23:25.135Z,98997.34
2023-09-22T03:25:55.822Z,98992.03
2023-09-22T03:28:27.850Z,98995.77
2023-09-22T03:31:02.313Z,98995.15
2023-09-22T03:33:35.136Z,98995.80
2023-09-22T03:36:11.143Z,98996.28
2023-09-22T03:38:48.082Z,98993.14
2023-09-22T03:41:23.713Z,98991.44
2023-09-22T03:43:55.826Z,98988.70
2023-09-22T03:46:27.797Z,98981.96
2023-09-22T03:48:59.878Z,98985.12
2023-09-22T03:51:31.893Z,98985.42
2023-09-22T03:54:04.112Z,98983.25
2023-09-22T03:56:38.885Z,98987.66
2023-09-22T03:59:12.791Z,98987.33
2023-09-22T04:01:46.039Z,98995.00
2023-09-22T04:04:18.716Z,99002.77
2023-09-22T04:06:49.264Z,99007.39
2023-09-22T04:09:21.216Z,99014.04
2023-09-22T04:11:54.179Z,99025.13
2023-09-22T04:14:26.064Z,99032.34
2023-09-22T04:16:58.011Z,99029.36
2023-09-22T04:19:34.442Z,99025.16
2023-09-22T04:22:08.831Z,99027.21
2023-09-22T04:24:48.533Z,99020.15
2023-09-22T04:27:20.591Z,99015.82
2023-09-22T04:29:54.286Z,99012.35
2023-09-22T04:32:26.204Z,99014.25
2023-09-22T04:35:00.635Z,99018.30
2023-09-22T04:37:32.717Z,99020.01
2023-09-22T04:40:10.620Z,99019.64
2023-09-22T04:42:42.512Z,99033.12
2023-09-22T04:45:14.674Z,99032.90
2023-09-22T04:47:47.608Z,99037.70
2023-09-22T04:50:20.142Z,99038.40
2023-09-22T04:52:51.504Z,99039.55
2023-09-22T04:55:23.904Z,99040.09
2023-09-22T04:57:55.836Z,99036.96
2023-09-22T05:00:28.458Z,99043.84
2023-09-22T05:03:00.817Z,99051.92
2023-09-22T05:05:32.128Z,99053.23
2023-09-22T05:08:04.412Z,99055.54
2023-09-22T05:10:36.430Z,99059.69
2023-09-22T05:13:08.518Z,99057.85
2023-09-22T05:15:42.924Z,99060.84
2023-09-22T05:18:15.441Z,99059.31
2023-09-22T05:20:47.841Z,99057.21
2023-09-22T05:23:19.850Z,99056.48
2023-09-22T05:25:51.918Z,99058.51
2023-09-22T05:28:24.276Z,99064.23
2023-09-22T05:30:58.636Z,99063.52
2023-09-22T05:33:32.689Z,99062.48
2023-09-22T05:36:06.545Z,99071.27
2023-09-22T05:38:38.743Z,99074.75
2023-09-22T05:41:12.098Z,99074.57
2023-09-22T05:43:44.428Z,99078.72
2023-09-22T05:46:16.428Z,99076.27
2023-09-22T05:48:49.637Z,99072.35
2023-09-22T05:51:22.228Z,99075.49
2023-09-22T05:53:54.911Z,99075.75
2023-09-22T05:56:27.104Z,99075.92
2023-09-22T05:58:59.084Z,99077.18
2023-09-22T06:01:33.436Z,99084.52
2023-09-22T06:04:06.563Z,99087.53
2023-09-22T06:06:39.196Z,99094.06
2023-09-22T06:09:12.814Z,99099.63
2023-09-22T06:11:45.016Z,99099.77
2023-09-22T06:14:17.658Z,99104.55
2023-09-22T06:16:48.120Z,99104.35
2023-09-22T06:19:21.263Z,99108.49
2023-09-22T06:21:53.562Z,99108.73
2023-09-22T06:24:25.713Z,99117.73
2023-09-22T06:26:57.765Z,99117.89
2023-09-22T06:29:29.960Z,99121.72
2023-09-22T06:32:02.785Z,99129.73
2023-09-22T06:34:35.164Z,99131.13
2023-09-22T06:37:10.304Z,99128.27
2023-09-22T06:39:43.748Z,99128.23
2023-09-22T06:42:16.098Z,99132.10
2023-09-22T06:44:48.190Z,99146.94
2023-09-22T06:47:21.601Z,99151.48
2023-09-22T06:49:53.569Z,99155.77
2023-09-22T06:52:25.687Z,99158.42
2023-09-22T06:54:57.700Z,99158.21
2023-09-22T06:57:30.258Z,99150.11
2023-09-22T07:00:05.775Z,99141.23
2023-09-22T07:02:38.056Z,99134.92
2023-09-22T07:05:11.648Z,99126.93
2023-09-22T07:07:44.048Z,99122.66
2023-09-22T07:10:17.568Z,99120.35
2023-09-22T07:12:49.672Z,99121.99
2023-09-22T07:15:23.702Z,99129.02
2023-09-22T07:17:55.932Z,99142.13
2023-09-22T07:20:27.834Z,99148.31
2023-09-22T07:22:59.855Z,99149.16
2023-09-22T07:25:32.007Z,99152.94
2023-09-22T07:28:04.118Z,99162.98
2023-09-22T07:30:36.757Z,99165.24
2023-09-22T07:33:10.468Z,99164.67
2023-09-22T07:35:43.230Z,99166.42
2023-09-22T07:38:15.761Z,99168.66
2023-09-22T07:40:47.920Z,99170.69
2023-09-22T07:43:20.312Z,99174.56
2023-09-22T07:45:52.358Z,99171.31
2023-09-22T07:48:24.572Z,99169.88
2023-09-22T07:50:56.880Z,99173.38
2023-09-22T07:53:30.158Z,99167.73
2023-09-22T07:56:02.536Z,99168.98
2023-09-22T07:58:33.155Z,99169.39
2023-09-22T08:01:08.367Z,99176.77
2023-09-22T08:03:40.606Z,99184.81
2023-09-22T08:06:13.063Z,99189.71
2023-09-22T08:08:43.734Z,99183.46
2023-09-22T08:11:15.929Z,99182.21
2023-09-22T08:13:48.246Z,99183.20
2023-09-22T08:16:20.334Z,99189.29
2023-09-22T08:18:52.503Z,99192.83
2023-09-22T08:21:26.888Z,99193.03
2023-09-22T08:23:59.991Z,99196.04
2023-09-22T08:26:32.278Z,99200.45
2023-09-22T08:29:05.773Z,99198.79
2023-09-22T08:31:38.141Z,99198.91
2023-09-22T08:34:10.496Z,99197.16
2023-09-22T08:36:42.720Z,99188.49
2023-09-22T08:39:16.972Z,99191.63
2023-09-22T08:41:49.481Z,99189.59
2023-09-22T08:44:20.973Z,99190.92
2023-09-22T08:46:54.100Z,99189.17
2023-09-22T08:49:27.624Z,99183.81
2023-09-22T08:52:01.288Z,99191.46
2023-09-22T08:54:33.491Z,99200.00
2023-09-22T08:57:05.510Z,99202.91
2023-09-22T08:59:37.817Z,99203.48
2023-09-22T09:02:12.311Z,99201.80
2023-09-22T09:04:44.465Z,99196.13
2023-09-22T09:07:20.219Z,99197.38
2023-09-22T09:09:54.137Z,99201.61
2023-09-22T09:12:26.548Z,99204.17
2023-09-22T09:15:01.249Z,99197.46
2023-09-22T09:17:33.411Z,99199.41
2023-09-22T09:20:07.097Z,99197.59
2023-09-22T09:22:41.710Z,99202.22
2023-09-22T09:25:16.061Z,99198.13
2023-09-22T09:27:48.825Z,99203.33
2023-09-22T09:30:21.740Z,99204.35
2023-09-22T09:32:53.710Z,99216.91
2023-09-22T09:35:44.141Z,99219.14
2023-09-22T09:38:22.009Z,99218.95
2023-09-22T09:40:56.429Z,99221.86
2023-09-22T09:43:28.559Z,99225.09
2023-09-22T09:46:00.749Z,99229.09
2023-09-22T09:48:35.036Z,99231.59
2023-09-22T09:51:13.919Z,99237.01
2023-09-22T09:53:47.910Z,99238.17
2023-09-22T09:56:21.320Z,99238.60
2023-09-22T09:58:54.272Z,99241.79
2023-09-22T10:01:27.146Z,99244.52
2023-09-22T10:04:00.598Z,99247.70
2023-09-22T10:06:38.351Z,99247.15
2023-09-22T10:09:14.808Z,99251.70
2023-09-22T10:11:46.930Z,99244.23
2023-09-22T10:14:52.505Z,99246.80
2023-09-22T10:17:26.325Z,99248.67
2023-09-22T10:20:01.529Z,99250.48
2023-09-22T10:22:33.775Z,99245.95
2023-09-22T10:25:34.148Z,99258.34
2023-09-22T10:28:10.573Z,99253.96
2023-09-22T10:31:06.701Z,99245.16
2023-09-22T10:33:38.958Z,99246.39
2023-09-22T10:36:11.472Z,99249.19
2023-09-22T10:38:55.160Z,99251.19
2023-09-22T10:41:27.210Z,99261.80
2023-09-22T10:44:03.257Z,99269.05
2023-09-22T10:46:35.388Z,99270.64
2023-09-22T10:49:07.604Z,99271.20
2023-09-22T10:51:48.739Z,99270.92
2023-09-22T10:54:20.852Z,99276.55
2023-09-22T10:56:53.005Z,99264.30
2023-09-22T10:59:34.898Z,99251.02
2023-09-22T11:02:07.371Z,99249.90
2023-09-22T11:04:48.330Z,99262.57
2023-09-22T11:07:34.543Z,99258.59
2023-09-22T11:10:07.348Z,99253.77
2023-09-22T11:12:39.402Z,99258.44
2023-09-22T11:15:13.076Z,99260.50
2023-09-22T11:17:47.491Z,99259.33
2023-09-22T11:20:27.301Z,99261.44
2023-09-22T11:23:02.449Z,99269.02
2023-09-22T11:25:34.621Z,99275.45
2023-09-22T11:28:07.447Z,99282.79
2023-09-22T11:30:41.078Z,99276.21
2023-09-22T11:33:18.686Z,99282.52
2023-09-22T11:35:53.762Z,99292.10
2023-09-22T11:38:28.374Z,99288.58
2023-09-22T11:41:10.805Z,99290.73
2023-09-22T11:43:47.645Z,99292.30
2023-09-22T11:46:26.519Z,99299.95
2023-09-22T11:49:03.205Z,99301.63
2023-09-22T11:51:51.919Z,99302.82
2023-09-22T11:54:26.086Z,99306.34
2023-09-22T11:57:00.467Z,99304.50
2023-09-22T11:59:35.850Z,99308.29
2023-09-22T12:02:08.606Z,99304.42
2023-09-22T12:04:41.014Z,99303.80
2023-09-22T12:07:13.609Z,99310.95
2023-09-22T12:09:44.028Z,99323.16
2023-09-22T12:12:17.471Z,99326.63
2023-09-22T12:14:49.899Z,99329.45
2023-09-22T12:17:20.747Z,99330.58
2023-09-22T12:19:53.100Z,99327.55
2023-09-22T12:22:23.655Z,99336.45
2023-09-22T12:24:55.872Z,99344.85
2023-09-22T12:27:28.422Z,99355.67
2023-09-22T12:29:58.915Z,99355.17
2023-09-22T12:32:31.698Z,99356.55
2023-09-22T12:35:06.359Z,99351.90
2023-09-22T12:37:38.605Z,99351.40
2023-09-22T12:40:13.241Z,99350.73
2023-09-22T12:42:45.862Z,99351.55
2023-09-22T12:45:18.603Z,99353.94
2023-09-22T12:47:50.733Z,99361.95
2023-09-22T12:50:22.657Z,99366.21
2023-09-22T12:52:54.722Z,99363.19
2023-09-22T12:55:26.905Z,99353.73
2023-09-22T12:57:59.371Z,99354.01
2023-09-22T13:00:33.612Z,99358.79
2023-09-22T13:03:06.239Z,99362.17
2023-09-22T13:05:43.753Z,99360.17
2023-09-22T13:08:17.050Z,99359.67
2023-09-22T13:10:49.151Z,99363.83
2023-09-22T13:13:21.220Z,99369.01
2023-09-22T13:15:54.130Z,99369.59
2023-09-22T13:18:26.303Z,99370.92
2023-09-22T13:20:58.488Z,99368.40
2023-09-22T13:23:31.076Z,99371.73
2023-09-22T13:26:05.231Z,99376.80
2023-09-22T13:28:37.278Z,99378.72
2023-09-22T13:31:09.501Z,99376.27
2023-09-22T13:33:41.804Z,99381.20
2023-09-22T13:36:19.759Z,99378.55
2023-09-22T13:38:53.033Z,99367.16
2023-09-22T13:41:25.593Z,99375.98
2023-09-22T13:43:58.022Z,99381.11
2023-09-22T13:46:30.144Z,99383.91
2023-09-22T13:49:02.272Z,99393.69
2023-09-22T13:51:34.334Z,99393.58
2023-09-22T13:54:06.960Z,99398.83
2023-09-22T13:56:37.424Z,99398.45
2023-09-22T13:59:10.046Z,99403.58
2023-09-22T14:01:42.223Z,99402.42
2023-09-22T14:04:14.294Z,99404.34
2023-09-22T14:06:46.335Z,99405.35
2023-09-22T14:09:18.260Z,99407.85
2023-09-22T14:11:50.170Z,99408.44
2023-09-22T14:14:22.806Z,99406.42
2023-09-22T14:16:53.441Z,99401.77
2023-09-22T14:19:25.989Z,99398.73
2023-09-22T14:21:57.998Z,99402.46
2023-09-22T14:24:29.985Z,99397.41
2023-09-22T14:27:01.990Z,99404.89
2023-09-22T14:29:34.013Z,99412.05
2023-09-22T14:32:06.429Z,99414.98
2023-09-22T14:34:38.759Z,99415.15
2023-09-22T14:37:11.477Z,99414.18
2023-09-22T14:39:42.699Z,99421.23
2023-09-22T14:42:14.684Z,99423.06
2023-09-22T14:44:46.783Z,99421.27
2023-09-22T14:47:18.867Z,99422.86
2023-09-22T14:49:51.123Z,99418.60
2023-09-22T14:52:23.056Z,99420.72
2023-09-22T14:54:56.108Z,99422.30
2023-09-22T14:57:28.082Z,99424.27
2023-09-22T15:00:00.226Z,99432.62
2023-09-22T15:02:32.958Z,99446.45
2023-09-22T15:05:04.073Z,99457.16
2023-09-22T15:07:36.416Z,99464.28
2023-09-22T15:10:09.975Z,99466.29
2023-09-22T15:12:42.197Z,99475.30
2023-09-22T15:15:12.935Z,99476.39
2023-09-22T15:17:44.997Z,99474.50
2023-09-22T15:20:17.192Z,99472.08
2023-09-22T15:22:49.134Z,99473.64
2023-09-22T15:25:21.386Z,99479.19
2023-09-22T15:27:53.373Z,99484.66
2023-09-22T15:30:25.767Z,99488.39
2023-09-22T15:32:57.780Z,99491.26
2023-09-22T15:35:29.719Z,99498.85
2023-09-22T15:38:01.924Z,99496.17
2023-09-22T15:40:34.095Z,99492.02
2023-09-22T15:43:06.999Z,99490.21
2023-09-22T15:45:38.970Z,99498.09
2023-09-22T15:48:11.006Z,99504.69
2023-09-22T15:50:42.976Z,99504.86
2023-09-22T15:53:15.506Z,99511.05
2023-09-22T15:55:46.045Z,99518.19
2023-09-22T15:58:20.109Z,99525.77
2023-09-22T16:00:52.617Z,99526.80
2023-09-22T16:03:24.910Z,99526.59
2023-09-22T16:05:59.671Z,99528.89
2023-09-22T16:08:32.223Z,99527.80
2023-09-22T16:11:04.545Z,99524.76
2023-09-22T16:13:37.525Z,99522.33
2023-09-22T16:16:10.743Z,99518.48
2023-09-22T16:18:43.060Z,99524.73
2023-09-22T16:21:15.063Z,99536.39
2023-09-22T16:23:47.727Z,99544.77
2023-09-22T16:26:18.509Z,99545.55
2023-09-22T16:28:51.075Z,99555.15
2023-09-22T16:31:22.405Z,99556.39
2023-09-22T16:33:55.422Z,99548.06
2023-09-22T16:36:27.573Z,99547.83
2023-09-22T16:38:59.766Z,99556.63
2023-09-22T16:41:32.074Z,99564.59
2023-09-22T16:44:04.466Z,99566.52
2023-09-22T16:46:36.630Z,99582.73
2023-09-22T16:49:08.817Z,99585.84
2023-09-22T16:51:40.848Z,99587.89
2023-09-22T16:54:12.775Z,99585.27
2023-09-22T16:56:44.840Z,99579.81
2023-09-22T16:59:17.076Z,99579.95
2023-09-22T17:01:49.066Z,99580.79
2023-09-22T17:04:21.194Z,99586.36
2023-09-22T17:06:53.248Z,99592.61
2023-09-22T17:09:25.660Z,99594.10
2023-09-22T17:11:57.576Z,99594.39
2023-09-22T17:14:30.896Z,99590.06
2023-09-22T17:17:04.109Z,99587.53
2023-09-22T17:19:36.907Z,99590.22
2023-09-22T17:22:08.013Z,99587.66
2023-09-22T17:24:39.920Z,99586.14
2023-09-22T17:27:12.306Z,99594.58
2023-09-22T17:29:48.265Z,99598.02
2023-09-22T17:32:20.265Z,99610.05
2023-09-22T17:34:53.707Z,99617.33
2023-09-22T17:37:25.893Z,99619.27
2023-09-22T17:39:58.131Z,99613.25
2023-09-22T17:42:30.064Z,99616.96
2023-09-22T17:45:01.951Z,99618.41
2023-09-22T17:47:34.815Z,99618.55
2023-09-22T17:50:05.733Z,99626.12
2023-09-22T17:52:37.648Z,99630.66
2023-09-22T17:55:10.939Z,99625.65
2023-09-22T17:57:42.868Z,99622.32
2023-09-22T18:00:16.139Z,99629.63
2023-09-22T18:02:48.234Z,99629.99
2023-09-22T18:05:20.281Z,99629.92
2023-09-22T18:07:52.281Z,99629.92
2023-09-22T18:10:24.327Z,99643.04
2023-09-22T18:12:56.529Z,99651.95
2023-09-22T18:15:28.475Z,99646.88
2023-09-22T18:18:00.575Z,99642.29
2023-09-22T18:20:32.910Z,99640.77
2023-09-22T18:23:07.804Z,99645.80
2023-09-22T18:25:42.467Z,99647.46
2023-09-22T18:28:14.411Z,99650.47
2023-09-22T18:30:46.994Z,99649.75
2023-09-22T18:33:19.374Z,99652.25
2023-09-22T18:35:58.014Z,99650.17
2023-09-22T18:38:30.053Z,99652.66
2023-09-22T18:41:02.577Z,99652.03
2023-09-22T18:43:34.689Z,99655.48
2023-09-22T18:46:07.138Z,99650.63
2023-09-22T18:48:39.129Z,99649.09
2023-09-22T18:51:11.449Z,99648.55
2023-09-22T18:53:43.521Z,99651.36
2023-09-22T18:56:15.956Z,99647.15
2023-09-22T18:58:49.062Z,99646.86
2023-09-22T19:01:23.812Z,99650.25
2023-09-22T19:03:57.392Z,99655.08
2023-09-22T19:06:29.992Z,99658.45
2023-09-22T19:09:02.402Z,99647.65
2023-09-22T19:11:35.809Z,99644.48
2023-09-22T19:14:08.410Z,99643.66
2023-09-22T19:16:40.583Z,99648.29
2023-09-22T19:19:13.028Z,99647.73
2023-09-22T19:21:45.282Z,99648.27
2023-09-22T19:24:17.498Z,99649.36
2023-09-22T19:26:53.146Z,99649.55
2023-09-22T19:29:25.344Z,99641.05
2023-09-22T19:31:57.622Z,99641.20
2023-09-22T19:34:30.816Z,99637.37
2023-09-22T19:37:03.586Z,99632.83
2023-09-22T19:39:34.074Z,99636.60
2023-09-22T19:42:06.198Z,99637.58
2023-09-22T19:44:39.059Z,99639.55
2023-09-22T19:47:11.741Z,99641.23
2023-09-22T19:49:44.282Z,99631.48
2023-09-22T19:52:16.493Z,99627.98
2023-09-22T19:54:48.541Z,99624.70
2023-09-22T19:57:20.706Z,99626.38
2023-09-22T19:59:52.832Z,99625.64
2023-09-22T20:02:25.316Z,99620.85
2023-09-22T20:04:57.702Z,99623.25
2023-09-22T20:07:30.894Z,99646.42
2023-09-22T20:10:02.926Z,99657.05
2023-09-22T20:12:35.011Z,99665.14
2023-09-22T20:15:08.536Z,99667.25
2023-09-22T20:17:40.649Z,99659.16
2023-09-22T20:20:14.396Z,99655.99
2023-09-22T20:22:48.061Z,99655.00
2023-09-22T20:25:20.445Z,99649.37
2023-09-22T20:27:52.464Z,99646.46
2023-09-22T20:30:24.709Z,99642.27
2023-09-22T20:32:58.133Z,99636.48
2023-09-22T20:35:33.053Z,99638.16
2023-09-22T20:38:05.539Z,99628.12
2023-09-22T20:40:37.573Z,99621.73
2023-09-22T20:43:10.138Z,99623.53
2023-09-22T20:45:43.243Z,99617.20
2023-09-22T20:48:15.524Z,99608.73
2023-09-22T20:50:50.562Z,99612.05
2023-09-22T20:53:22.892Z,99611.42
2023-09-22T20:55:55.073Z,99610.14
2023-09-22T20:58:28.648Z,99613.52
2023-09-22T21:01:07.609Z,99609.52
2023-09-22T21:03:41.175Z,99600.55
2023-09-22T21:06:14.502Z,99595.75
2023-09-22T21:08:47.768Z,99604.69
2023-09-22T21:11:20.207Z,99615.52
2023-09-22T21:13:52.177Z,99627.30
2023-09-22T21:16:24.488Z,99638.59
2023-09-22T21:18:56.905Z,99633.73
2023-09-22T21:21:29.677Z,99637.90
2023-09-22T21:24:01.916Z,99639.19
2023-09-22T21:26:33.947Z,99642.73
2023-09-22T21:29:08.175Z,99649.51
2023-09-22T21:31:41.108Z,99656.02
2023-09-22T21:34:14.198Z,99656.06
2023-09-22T21:36:46.403Z,99660.30
2023-09-22T21:39:18.306Z,99656.73
2023-09-22T21:41:50.644Z,99665.17
2023-09-22T21:44:22.485Z,99680.88
2023-09-22T21:46:54.525Z,99674.58
2023-09-22T21:49:26.543Z,99671.92
2023-09-22T21:51:58.473Z,99678.84
2023-09-22T21:54:30.950Z,99692.93
2023-09-22T21:57:05.825Z,99700.84
2023-09-22T21:59:37.689Z,99709.70
2023-09-22T22:02:09.925Z,99708.02
2023-09-22T22:04:46.263Z,99702.63
2023-09-22T22:07:19.129Z,99706.16
2023-09-22T22:09:52.836Z,99717.85
2023-09-22T22:12:25.358Z,99718.70
2023-09-22T22:14:57.416Z,99716.90
2023-09-22T22:17:30.164Z,99712.15
2023-09-22T22:20:04.946Z,99703.17
2023-09-22T22:22:37.136Z,99699.89
2023-09-22T22:25:11.438Z,99701.22
2023-09-22T22:27:44.194Z,99709.11
2023-09-22T22:30:16.791Z,99720.15
2023-09-22T22:32:49.713Z,99724.74
2023-09-22T22:35:22.217Z,99718.16
2023-09-22T22:37:54.187Z,99725.20
2023-09-22T22:40:26.307Z,99728.88
2023-09-22T22:42:58.524Z,99729.38
2023-09-22T22:45:30.660Z,99715.54
2023-09-22T22:48:07.930Z,99713.58
2023-09-22T22:50:40.188Z,99716.84
2023-09-22T22:53:12.237Z,99720.60
2023-09-22T22:55:44.491Z,99727.11
2023-09-22T22:58:20.803Z,99730.13
2023-09-22T23:00:55.929Z,99740.83
2023-09-22T23:03:30.914Z,99746.23
2023-09-22T23:06:05.747Z,99748.87
2023-09-22T23:08:41.115Z,99747.10
2023-09-22T23:11:13.922Z,99743.81
2023-09-22T23:13:47.386Z,99751.16
2023-09-22T23:16:23.759Z,99752.73
2023-09-22T23:18:57.147Z,99748.46
2023-09-22T23:21:33.179Z,99744.98
2023-09-22T23:24:11.513Z,99749.29
2023-09-22T23:26:43.726Z,99754.16
2023-09-22T23:29:17.169Z,99746.41
2023-09-22T23:31:49.809Z,99748.23
2023-09-22T23:34:22.540Z,99756.51
2023-09-22T23:36:53.459Z,99756.13
2023-09-22T23:39:26.319Z,99757.53
2023-09-22T23:41:58.964Z,99766.59
2023-09-22T23:44:29.376Z,99770.32
2023-09-22T23:47:02.123Z,99767.48
2023-09-22T23:49:37.696Z,99765.14
2023-09-22T23:52:09.653Z,99769.16
2023-09-22T23:54:41.598Z,99773.80
2023-09-22T23:57:14.111Z,99775.55
2023-09-22T23:59:48.999Z,99770.17
